Main page
METAR-TAF:

METAR-TAF

Airports :

Kuwait International Airport

Kuwait City, Kuwait

latitude: 29-13N, longitude: 047-59E, elevation: 55 m

Current weather observation

The report was made 45 minutes ago, at 01:00 UTC
Wind 14 kt from the South/Southeast
Temperature 17°C
Humidity 72%
Pressure 1012 hPa
Visibility 10 km or more
no clouds below 1500 m and no cumulonimbus

METAR: OKBK 220100Z 15014KT CAVOK 17/12 Q1012 NOSIG

Time: 04:45 (01:45 UTC)

Forecast

The report was made 3 hours and 0 minutes ago, at 22:45 UTC
Forecast valid from 22 at 00 UTC to 23 at 06 UTC
Wind 15 kt from the South/Southeast with gusts up to 25 kt
Visibility: 6000 m
Few clouds at a height of 4000 ft
Broken clouds at a height of 8000 ft
Temporary
from 22 at 00 UTC to 22 at 09 UTC
Visibility: 3000 m
Few clouds at a height of 2500 ft, Cumulonimbus.

TAF: OKBK 212245Z 2200/2306 16015G25KT 6000 FEW040 BKN080 TEMPO 2200/2209 3000 TSRA/BLDU FEW025CB

Weather observations and forecasts of more than 4000 airports (METAR and TAF reports).

The available stations are represented by yellow and red dots on the map.

Hover mouse over dot to see the name of the station.

Then click to see weather observations and forecasts.

To change the map : click on the green buttons with a black cross to zoom in, on the green button with a dash to zoom out, or on the green arrows for adjacent maps.


METAR-TAF: